createdAt,value
2022-08-26T00:00:00.000Z,22.35
2022-08-26T00:15:00.000Z,22.13
2022-08-26T00:30:00.000Z,22.08
2022-08-26T00:45:00.000Z,21.93
2022-08-26T01:00:00.000Z,21.79
2022-08-26T01:15:00.000Z,21.67
2022-08-26T01:30:00.000Z,21.56
2022-08-26T01:45:00.000Z,21.51
2022-08-26T02:00:00.000Z,21.46
2022-08-26T02:15:00.000Z,21.44
2022-08-26T02:30:00.000Z,21.33
2022-08-26T02:45:00.000Z,21.25
2022-08-26T03:00:00.000Z,21.14
2022-08-26T03:15:00.000Z,20.98
2022-08-26T03:30:00.000Z,20.9
2022-08-26T04:00:00.000Z,20.69
2022-08-26T04:00:00.000Z,20.7
2022-08-26T04:15:00.000Z,20.59
2022-08-26T04:30:00.000Z,20.55
2022-08-26T04:45:00.000Z,20.72
2022-08-26T05:00:00.000Z,20.68
2022-08-26T05:15:00.000Z,20.79
2022-08-26T05:30:00.000Z,20.88
2022-08-26T06:00:00.000Z,21.42
2022-08-26T06:00:00.000Z,21.97
2022-08-26T06:15:00.000Z,23.15
2022-08-26T06:30:00.000Z,24.19
2022-08-26T06:45:00.000Z,24.63
2022-08-26T07:00:00.000Z,25.19
2022-08-26T07:15:00.000Z,26
2022-08-26T07:45:00.000Z,29.29
2022-08-26T07:45:00.000Z,30.19
2022-08-26T08:00:00.000Z,28.93
2022-08-26T08:15:00.000Z,29.51
2022-08-26T08:30:00.000Z,31.31
2022-08-26T08:45:00.000Z,32.11
2022-08-26T09:00:00.000Z,33.6
2022-08-26T09:15:00.000Z,34
2022-08-26T09:30:00.000Z,34.04
2022-08-26T09:45:00.000Z,33.85
2022-08-26T10:00:00.000Z,34.38
2022-08-26T10:15:00.000Z,34.55
2022-08-26T10:30:00.000Z,33.82
2022-08-26T10:45:00.000Z,33.06
2022-08-26T11:00:00.000Z,33.3
2022-08-26T11:15:00.000Z,32.75
2022-08-26T11:30:00.000Z,32.52
2022-08-26T11:45:00.000Z,32.4
2022-08-26T12:00:00.000Z,32.41
2022-08-26T12:15:00.000Z,31.67
2022-08-26T12:30:00.000Z,31.75
2022-08-26T12:45:00.000Z,31.79
2022-08-26T13:00:00.000Z,31.87
2022-08-26T13:15:00.000Z,31.93
2022-08-26T13:30:00.000Z,31.77
2022-08-26T13:45:00.000Z,31.9
2022-08-26T14:00:00.000Z,31.76
2022-08-26T14:15:00.000Z,31.68
2022-08-26T14:30:00.000Z,31.26
2022-08-26T14:45:00.000Z,31.01
2022-08-26T15:00:00.000Z,30.44
2022-08-26T15:15:00.000Z,30.1
2022-08-26T15:30:00.000Z,29.65
2022-08-26T15:45:00.000Z,29.17
2022-08-26T16:00:00.000Z,28.49
2022-08-26T16:15:00.000Z,27.23
2022-08-26T16:30:00.000Z,26.14
2022-08-26T16:45:00.000Z,25.34
2022-08-26T17:00:00.000Z,24.58
2022-08-26T17:15:00.000Z,24.04
2022-08-26T17:30:00.000Z,23.27
2022-08-26T17:45:00.000Z,23.07
2022-08-26T18:00:00.000Z,22.74
2022-08-26T18:15:00.000Z,22.61
2022-08-26T18:30:00.000Z,22.56
2022-08-26T18:45:00.000Z,22.42
2022-08-26T19:00:00.000Z,22.12
2022-08-26T19:15:00.000Z,22.08
2022-08-26T19:30:00.000Z,22.23
2022-08-26T19:45:00.000Z,22.28
2022-08-26T20:00:00.000Z,22.18
2022-08-26T20:30:00.000Z,21.78
2022-08-26T20:30:00.000Z,21.75
2022-08-26T20:45:00.000Z,21.67
2022-08-26T21:00:00.000Z,21.49
2022-08-26T21:15:00.000Z,21.2
2022-08-26T21:30:00.000Z,21.26
2022-08-26T21:45:00.000Z,21.18
2022-08-26T22:00:00.000Z,21.31
2022-08-26T22:15:00.000Z,21.39
2022-08-26T22:30:00.000Z,21.03
2022-08-26T22:45:00.000Z,21.04
2022-08-26T23:15:00.000Z,20.92
2022-08-26T23:15:00.000Z,20.89
2022-08-26T23:30:00.000Z,20.73
2022-08-26T23:45:00.000Z,20.69
